createdAt,value
2022-08-12T00:00:53.754Z,99.90
2022-08-12T00:03:39.444Z,99.90
2022-08-12T00:06:25.969Z,99.90
2022-08-12T00:09:11.363Z,99.90
2022-08-12T00:11:58.117Z,99.90
2022-08-12T00:14:43.655Z,99.90
2022-08-12T00:17:29.313Z,99.90
2022-08-12T00:20:14.815Z,99.90
2022-08-12T00:23:01.493Z,99.90
2022-08-12T00:26:21.589Z,99.90
2022-08-12T00:29:04.825Z,99.90
2022-08-12T00:31:50.418Z,99.90
2022-08-12T00:34:36.511Z,99.90
2022-08-12T00:37:22.848Z,99.90
2022-08-12T00:40:10.995Z,99.90
2022-08-12T00:42:39.906Z,99.90
2022-08-12T00:45:10.094Z,99.90
2022-08-12T00:47:40.489Z,99.90
2022-08-12T00:50:17.652Z,99.90
2022-08-12T00:52:47.032Z,99.90
2022-08-12T00:55:15.530Z,99.90
2022-08-12T00:57:47.833Z,99.90
2022-08-12T01:00:21.459Z,99.90
2022-08-12T01:02:52.772Z,99.90
2022-08-12T01:05:40.264Z,99.90
2022-08-12T01:08:26.745Z,99.90
2022-08-12T01:11:14.235Z,99.90
2022-08-12T01:13:47.233Z,99.90
2022-08-12T01:16:18.041Z,99.90
2022-08-12T01:18:46.387Z,99.90
2022-08-12T01:21:41.512Z,99.90
2022-08-12T01:24:28.011Z,99.90
2022-08-12T01:27:02.478Z,99.90
2022-08-12T01:29:34.516Z,99.90
2022-08-12T01:32:08.563Z,99.90
2022-08-12T01:34:38.724Z,99.90
2022-08-12T01:37:08.872Z,99.90
2022-08-12T01:40:33.231Z,99.90
2022-08-12T01:42:34.039Z,99.90
2022-08-12T01:45:03.686Z,99.90
2022-08-12T01:47:47.250Z,99.90
2022-08-12T01:50:22.260Z,99.90
2022-08-12T01:53:01.822Z,99.90
2022-08-12T01:55:33.468Z,99.90
2022-08-12T01:58:23.654Z,99.90
2022-08-12T02:00:59.119Z,99.90
2022-08-12T02:04:03.569Z,99.90
2022-08-12T02:06:55.284Z,99.90
2022-08-12T02:09:58.428Z,99.90
2022-08-12T02:12:41.182Z,99.90
2022-08-12T02:15:22.570Z,99.90
2022-08-12T02:21:21.391Z,99.90
2022-08-12T02:24:14.448Z,99.90
2022-08-12T02:33:25.683Z,99.90
2022-08-12T02:53:10.111Z,99.90
2022-08-12T02:55:37.953Z,99.90
2022-08-12T02:58:12.373Z,99.90
2022-08-12T03:00:44.334Z,99.90
2022-08-12T03:03:14.580Z,99.90
2022-08-12T03:05:49.203Z,99.90
2022-08-12T03:08:32.545Z,99.90
2022-08-12T03:11:06.155Z,99.90
2022-08-12T03:13:43.198Z,99.90
2022-08-12T03:16:11.158Z,99.90
2022-08-12T03:18:45.548Z,99.90
2022-08-12T03:21:17.324Z,99.90
2022-08-12T03:24:08.907Z,99.90
2022-08-12T03:26:38.500Z,99.90
2022-08-12T03:29:07.607Z,99.90
2022-08-12T03:31:35.654Z,99.90
2022-08-12T03:34:06.514Z,99.90
2022-08-12T03:36:36.236Z,99.90
2022-08-12T03:39:36.105Z,99.90
2022-08-12T03:42:23.064Z,99.90
2022-08-12T03:45:15.586Z,99.90
2022-08-12T03:48:06.428Z,99.90
2022-08-12T03:50:52.044Z,99.90
2022-08-12T03:53:44.220Z,99.90
2022-08-12T03:56:31.625Z,99.90
2022-08-12T03:59:18.817Z,99.90
2022-08-12T04:01:52.531Z,99.90
2022-08-12T04:04:22.568Z,99.90
2022-08-12T04:06:51.325Z,99.90
2022-08-12T04:09:22.170Z,99.90
2022-08-12T04:12:09.357Z,99.90
2022-08-12T04:14:37.698Z,99.90
2022-08-12T04:17:06.111Z,99.90
2022-08-12T04:19:34.249Z,99.90
2022-08-12T04:22:03.731Z,99.90
2022-08-12T04:24:34.535Z,99.90
2022-08-12T04:27:09.299Z,99.90
2022-08-12T04:30:16.685Z,99.90
2022-08-12T04:32:26.105Z,99.90
2022-08-12T04:34:54.606Z,99.90
2022-08-12T04:37:23.181Z,99.90
2022-08-12T04:39:52.028Z,99.90
2022-08-12T04:42:21.574Z,99.90
2022-08-12T04:44:49.481Z,99.90
2022-08-12T04:47:17.970Z,99.90
2022-08-12T04:49:48.069Z,99.90
2022-08-12T04:52:16.158Z,99.90
2022-08-12T04:54:44.589Z,99.90
2022-08-12T04:57:12.601Z,99.90
2022-08-12T04:59:47.766Z,99.90
2022-08-12T05:02:21.212Z,99.90
2022-08-12T05:04:51.389Z,99.90
2022-08-12T05:07:19.304Z,99.90
2022-08-12T05:10:00.714Z,99.90
2022-08-12T05:12:36.440Z,99.90
2022-08-12T05:15:19.848Z,99.90
2022-08-12T05:17:56.341Z,99.90
2022-08-12T05:20:28.119Z,99.90
2022-08-12T05:23:12.559Z,99.90
2022-08-12T05:25:43.042Z,99.90
2022-08-12T05:28:12.906Z,99.90
2022-08-12T05:30:43.302Z,99.90
2022-08-12T05:33:13.105Z,99.90
2022-08-12T05:35:42.864Z,99.90
2022-08-12T05:38:29.603Z,99.90
2022-08-12T05:40:57.552Z,99.90
2022-08-12T05:43:25.508Z,99.90
2022-08-12T05:45:54.830Z,99.90
2022-08-12T05:48:25.976Z,99.90
2022-08-12T05:50:54.042Z,99.90
2022-08-12T05:53:21.812Z,99.90
2022-08-12T05:55:49.623Z,99.90
2022-08-12T05:58:17.516Z,99.90
2022-08-12T06:00:45.312Z,99.90
2022-08-12T06:03:17.524Z,99.90
2022-08-12T06:05:54.617Z,99.90
2022-08-12T06:08:24.451Z,99.90
2022-08-12T06:10:52.531Z,99.90
2022-08-12T06:13:27.873Z,99.90
2022-08-12T06:15:56.877Z,99.90
2022-08-12T06:18:29.794Z,99.90
2022-08-12T06:20:59.025Z,99.90
2022-08-12T06:23:30.137Z,99.90
2022-08-12T06:25:59.482Z,99.90
2022-08-12T06:28:30.404Z,99.90
2022-08-12T06:34:00.399Z,99.90
2022-08-12T06:36:38.133Z,99.90
2022-08-12T06:39:14.793Z,99.90
2022-08-12T06:42:02.426Z,99.90
2022-08-12T06:44:50.268Z,99.90
2022-08-12T06:47:19.394Z,99.90
2022-08-12T06:49:49.430Z,99.90
2022-08-12T06:52:19.274Z,99.90
2022-08-12T06:54:47.098Z,99.90
2022-08-12T06:57:57.480Z,99.90
2022-08-12T07:00:02.809Z,99.90
2022-08-12T07:02:33.755Z,99.90
2022-08-12T07:05:10.146Z,99.90
2022-08-12T07:07:38.914Z,99.90
2022-08-12T07:10:08.478Z,99.90
2022-08-12T07:12:36.698Z,99.90
2022-08-12T07:15:06.432Z,99.90
2022-08-12T07:17:37.603Z,99.90
2022-08-12T07:20:29.575Z,99.90
2022-08-12T07:23:00.402Z,99.90
2022-08-12T07:25:40.951Z,99.90
2022-08-12T07:28:17.074Z,99.90
2022-08-12T07:30:48.380Z,99.90
2022-08-12T07:33:16.931Z,99.90
2022-08-12T07:35:47.989Z,99.90
2022-08-12T07:38:29.470Z,99.90
2022-08-12T07:41:02.281Z,99.90
2022-08-12T07:43:31.026Z,99.90
2022-08-12T07:46:00.186Z,99.90
2022-08-12T07:48:28.403Z,99.90
2022-08-12T07:50:57.577Z,99.90
2022-08-12T07:53:25.400Z,99.90
2022-08-12T07:55:53.201Z,99.90
2022-08-12T07:58:22.073Z,99.90
2022-08-12T08:00:50.031Z,99.90
2022-08-12T08:03:17.955Z,99.90
2022-08-12T08:05:46.808Z,99.90
2022-08-12T08:08:17.625Z,99.90
2022-08-12T08:10:46.223Z,99.90
2022-08-12T08:13:13.705Z,99.90
2022-08-12T08:16:02.520Z,99.90
2022-08-12T08:18:30.201Z,99.90
2022-08-12T08:20:58.080Z,99.90
2022-08-12T08:23:55.563Z,99.90
2022-08-12T08:26:26.910Z,99.90
2022-08-12T08:28:54.778Z,99.90
2022-08-12T08:31:22.562Z,99.90
2022-08-12T08:34:09.344Z,99.90
2022-08-12T08:36:39.312Z,99.90
2022-08-12T08:39:09.029Z,99.90
2022-08-12T08:42:16.225Z,99.90
2022-08-12T08:44:43.530Z,99.90
2022-08-12T08:47:12.890Z,99.90
2022-08-12T08:53:27.753Z,99.90
2022-08-12T08:56:05.604Z,99.90
2022-08-12T08:58:33.659Z,99.90
2022-08-12T09:01:01.603Z,99.90
2022-08-12T09:05:09.367Z,99.90
2022-08-12T09:06:19.827Z,99.90
2022-08-12T09:09:13.102Z,99.90
2022-08-12T09:12:10.639Z,99.90
2022-08-12T09:17:43.004Z,99.90
2022-08-12T09:20:16.676Z,99.90
2022-08-12T09:22:49.152Z,99.90
2022-08-12T09:25:25.479Z,99.90
2022-08-12T09:30:48.058Z,99.90
2022-08-12T09:34:25.784Z,99.90
2022-08-12T09:36:07.219Z,99.90
2022-08-12T09:38:35.524Z,99.90
2022-08-12T09:42:32.813Z,99.90
2022-08-12T09:44:38.083Z,99.90
2022-08-12T09:46:58.853Z,99.90
2022-08-12T09:49:28.130Z,99.90
2022-08-12T09:51:57.233Z,99.90
2022-08-12T09:54:32.957Z,99.90
2022-08-12T09:58:46.418Z,99.90
2022-08-12T10:00:17.559Z,99.90
2022-08-12T10:03:32.694Z,99.90
2022-08-12T10:06:20.279Z,99.90
2022-08-12T10:08:52.444Z,99.90
2022-08-12T10:11:41.357Z,99.50
2022-08-12T10:14:34.574Z,98.60
2022-08-12T10:17:08.998Z,98.70
2022-08-12T10:19:37.731Z,99.40
2022-08-12T10:22:06.027Z,99.90
2022-08-12T10:25:17.133Z,99.40
2022-08-12T10:28:03.739Z,99.30
2022-08-12T10:30:39.700Z,98.70
2022-08-12T10:33:18.053Z,98.70
2022-08-12T10:35:47.334Z,99.10
2022-08-12T10:38:35.574Z,99.10
2022-08-12T10:41:58.100Z,98.70
2022-08-12T10:44:16.851Z,98.50
2022-08-12T10:46:49.366Z,98.20
2022-08-12T10:50:07.045Z,98.30
2022-08-12T10:52:34.741Z,98.40
2022-08-12T10:54:56.386Z,97.90
2022-08-12T10:58:13.573Z,97.70
2022-08-12T11:00:31.387Z,97.50
2022-08-12T11:04:25.451Z,97.30
2022-08-12T11:07:06.418Z,97.20
2022-08-12T11:08:43.362Z,96.90
2022-08-12T11:11:22.018Z,96.50
2022-08-12T11:14:05.906Z,96.00
2022-08-12T11:16:33.839Z,95.80
2022-08-12T11:19:05.597Z,95.90
2022-08-12T11:21:56.316Z,95.70
2022-08-12T11:24:31.810Z,96.00
2022-08-12T11:27:01.744Z,95.60
2022-08-12T11:30:03.728Z,95.40
2022-08-12T11:32:24.707Z,95.00
2022-08-12T11:34:54.793Z,94.90
2022-08-12T11:37:26.526Z,95.00
2022-08-12T11:42:35.106Z,93.80
2022-08-12T11:45:04.098Z,94.10
2022-08-12T11:47:33.029Z,94.20
2022-08-12T11:50:01.370Z,93.80
2022-08-12T11:53:02.312Z,93.60
2022-08-12T11:55:18.653Z,93.50
2022-08-12T11:58:34.185Z,92.60
2022-08-12T12:03:44.032Z,92.50
2022-08-12T12:06:16.759Z,92.60
2022-08-12T12:08:51.611Z,92.80
2022-08-12T12:11:21.937Z,92.60
2022-08-12T12:14:07.709Z,92.60
2022-08-12T12:16:40.004Z,92.50
2022-08-12T12:19:10.395Z,92.20
2022-08-12T12:21:48.101Z,92.40
2022-08-12T12:24:21.879Z,92.30
2022-08-12T12:27:00.635Z,92.30
2022-08-12T12:30:17.491Z,92.60
2022-08-12T12:32:18.385Z,92.80
2022-08-12T12:35:14.418Z,92.70
2022-08-12T12:38:04.003Z,92.50
2022-08-12T12:40:29.883Z,92.20
2022-08-12T12:43:01.882Z,91.70
2022-08-12T12:45:35.583Z,91.40
2022-08-12T12:48:05.161Z,91.20
2022-08-12T12:50:45.022Z,91.00
2022-08-12T12:54:06.491Z,90.70
2022-08-12T12:56:16.670Z,90.60
2022-08-12T12:58:44.893Z,90.50
2022-08-12T13:01:25.503Z,90.00
2022-08-12T13:03:56.395Z,90.00
2022-08-12T13:06:31.442Z,89.60
2022-08-12T13:09:02.589Z,88.50
2022-08-12T13:11:41.592Z,89.40
2022-08-12T13:14:28.101Z,89.40
2022-08-12T13:17:00.947Z,88.90
2022-08-12T13:19:38.873Z,88.70
2022-08-12T13:22:21.127Z,89.30
2022-08-12T13:24:55.008Z,89.60
2022-08-12T13:27:35.778Z,89.90
2022-08-12T13:30:11.699Z,90.00
2022-08-12T13:32:41.818Z,89.60
2022-08-12T13:35:20.049Z,90.00
2022-08-12T13:38:02.670Z,89.30
2022-08-12T13:40:32.966Z,88.90
2022-08-12T13:43:06.223Z,89.10
2022-08-12T13:45:36.642Z,89.90
2022-08-12T13:48:06.530Z,90.20
2022-08-12T13:50:37.414Z,90.00
2022-08-12T13:53:23.291Z,88.10
2022-08-12T13:55:59.289Z,87.80
2022-08-12T13:58:30.165Z,87.50
2022-08-12T14:00:59.770Z,88.00
2022-08-12T14:03:28.594Z,87.00
2022-08-12T14:06:17.920Z,86.80
2022-08-12T14:08:49.580Z,86.80
2022-08-12T14:11:19.201Z,87.50
2022-08-12T14:14:03.505Z,87.60
2022-08-12T14:16:48.559Z,87.30
2022-08-12T14:19:24.544Z,86.60
2022-08-12T14:22:00.725Z,86.70
2022-08-12T14:24:36.962Z,86.10
2022-08-12T14:27:10.273Z,85.60
2022-08-12T14:30:05.684Z,85.60
2022-08-12T14:32:34.624Z,85.90
2022-08-12T14:35:03.903Z,86.60
2022-08-12T14:37:55.936Z,87.00
2022-08-12T14:40:27.781Z,87.50
2022-08-12T14:42:57.305Z,86.70
2022-08-12T14:45:44.471Z,86.80
2022-08-12T14:48:16.637Z,86.30
2022-08-12T14:51:07.598Z,86.40
2022-08-12T14:59:57.568Z,86.60
2022-08-12T15:02:28.505Z,85.90
2022-08-12T15:04:58.984Z,86.60
2022-08-12T15:07:33.687Z,86.10
2022-08-12T15:10:13.317Z,85.90
2022-08-12T15:12:41.588Z,84.70
2022-08-12T15:15:11.398Z,85.20
2022-08-12T15:17:40.927Z,83.80
2022-08-12T15:20:32.570Z,83.70
2022-08-12T15:22:58.099Z,84.00
2022-08-12T15:25:26.014Z,84.30
2022-08-12T15:28:03.902Z,83.80
2022-08-12T15:30:42.081Z,84.30
2022-08-12T15:33:18.911Z,84.30
2022-08-12T15:35:53.421Z,85.10
2022-08-12T15:38:25.160Z,84.30
2022-08-12T15:40:54.881Z,84.80
2022-08-12T15:44:16.396Z,85.00
2022-08-12T15:46:15.131Z,84.60
2022-08-12T15:48:48.450Z,84.80
2022-08-12T15:51:59.011Z,85.00
2022-08-12T15:54:35.231Z,85.30
2022-08-12T15:57:07.838Z,85.50
2022-08-12T16:00:02.365Z,84.80
2022-08-12T16:02:26.778Z,84.50
2022-08-12T16:04:56.565Z,84.20
2022-08-12T16:07:30.039Z,83.90
2022-08-12T16:10:05.905Z,83.70
2022-08-12T16:12:41.845Z,83.10
2022-08-12T16:15:10.871Z,83.60
2022-08-12T16:18:14.441Z,84.20
2022-08-12T16:20:33.517Z,88.70
2022-08-12T16:23:35.776Z,90.60
2022-08-12T16:26:05.634Z,91.50
2022-08-12T16:28:38.495Z,92.00
2022-08-12T16:31:09.779Z,92.30
2022-08-12T16:33:59.921Z,92.50
2022-08-12T16:36:30.550Z,92.60
2022-08-12T16:39:01.437Z,92.70
2022-08-12T16:41:39.724Z,92.80
2022-08-12T16:44:08.457Z,93.00
2022-08-12T16:46:37.744Z,93.20
2022-08-12T16:49:13.927Z,93.50
2022-08-12T16:51:46.555Z,93.60
2022-08-12T16:54:16.920Z,93.70
2022-08-12T16:56:51.155Z,93.70
2022-08-12T16:59:23.003Z,93.90
2022-08-12T17:01:51.968Z,94.00
2022-08-12T17:04:24.421Z,93.90
2022-08-12T17:06:54.190Z,94.10
2022-08-12T17:09:22.823Z,94.50
2022-08-12T17:11:50.698Z,94.30
2022-08-12T17:14:23.635Z,94.40
2022-08-12T17:16:55.266Z,94.50
2022-08-12T17:20:02.578Z,94.60
2022-08-12T17:22:16.347Z,94.70
2022-08-12T17:24:54.409Z,94.80
2022-08-12T17:27:24.634Z,95.00
2022-08-12T17:30:02.861Z,95.30
2022-08-12T17:32:33.469Z,95.20
2022-08-12T17:35:19.745Z,95.20
2022-08-12T17:37:50.682Z,95.30
2022-08-12T17:40:34.868Z,95.40
2022-08-12T17:43:55.899Z,95.50
2022-08-12T17:45:58.888Z,95.60
2022-08-12T17:48:35.216Z,95.60
2022-08-12T17:51:15.224Z,95.70
2022-08-12T17:54:05.752Z,95.70
2022-08-12T17:56:37.880Z,95.90
2022-08-12T17:59:12.523Z,95.90
2022-08-12T18:01:44.307Z,95.90
2022-08-12T18:04:21.391Z,96.00
2022-08-12T18:06:50.915Z,96.10
2022-08-12T18:09:21.671Z,96.20
2022-08-12T18:12:11.505Z,96.30
2022-08-12T18:14:41.006Z,96.40
2022-08-12T18:17:21.418Z,96.60
2022-08-12T18:20:07.122Z,96.70
2022-08-12T18:22:36.309Z,96.80
2022-08-12T18:26:12.470Z,97.00
2022-08-12T18:28:16.026Z,97.00
2022-08-12T18:30:53.238Z,97.20
2022-08-12T18:33:25.660Z,97.30
2022-08-12T18:35:57.173Z,97.50
2022-08-12T18:38:27.866Z,97.60
2022-08-12T18:41:20.828Z,97.70
2022-08-12T18:44:02.704Z,97.80
2022-08-12T18:46:54.374Z,97.80
2022-08-12T18:49:29.773Z,98.00
2022-08-12T18:52:04.856Z,98.10
2022-08-12T18:54:35.923Z,98.20
2022-08-12T18:57:19.662Z,98.40
2022-08-12T19:00:07.065Z,98.50
2022-08-12T19:02:46.333Z,98.50
2022-08-12T19:05:18.720Z,98.70
2022-08-12T19:08:00.635Z,98.80
2022-08-12T19:10:31.816Z,99.00
2022-08-12T19:13:23.185Z,99.00
2022-08-12T19:15:53.433Z,99.20
2022-08-12T19:18:24.343Z,99.30
2022-08-12T19:20:58.791Z,99.40
2022-08-12T19:23:35.116Z,99.50
2022-08-12T19:26:03.773Z,99.50
2022-08-12T19:28:36.543Z,99.60
2022-08-12T19:31:56.093Z,99.70
2022-08-12T19:35:24.122Z,99.70
2022-08-12T19:37:20.079Z,99.80
2022-08-12T19:40:08.724Z,99.90
2022-08-12T19:42:44.514Z,99.90
2022-08-12T19:45:15.829Z,99.90
2022-08-12T19:47:44.736Z,99.90
2022-08-12T19:50:19.923Z,99.90
2022-08-12T19:52:51.047Z,99.90
2022-08-12T19:55:21.782Z,99.90
2022-08-12T19:58:01.351Z,99.90
2022-08-12T20:00:34.521Z,99.90
2022-08-12T20:03:05.200Z,99.90
2022-08-12T20:06:06.684Z,99.90
2022-08-12T20:08:32.838Z,99.90
2022-08-12T20:12:10.297Z,99.90
2022-08-12T20:14:01.225Z,99.90
2022-08-12T20:16:57.215Z,99.90
2022-08-12T20:19:28.506Z,99.90
2022-08-12T20:22:24.736Z,99.90
2022-08-12T20:25:01.415Z,99.90
2022-08-12T20:28:03.255Z,99.90
2022-08-12T20:30:37.260Z,99.90
2022-08-12T20:33:18.848Z,99.90
2022-08-12T20:36:07.005Z,99.90
2022-08-12T20:38:40.562Z,99.90
2022-08-12T20:41:16.199Z,99.90
2022-08-12T20:43:45.733Z,99.90
2022-08-12T20:46:15.190Z,99.90
2022-08-12T20:48:47.045Z,99.90
2022-08-12T20:51:23.528Z,99.90
2022-08-12T20:53:57.765Z,99.90
2022-08-12T20:56:31.611Z,99.90
2022-08-12T20:59:01.458Z,99.90
2022-08-12T21:01:46.216Z,99.90
2022-08-12T21:04:36.647Z,99.90
2022-08-12T21:07:09.230Z,99.90
2022-08-12T21:09:41.449Z,99.90
2022-08-12T21:12:37.521Z,99.90
2022-08-12T21:15:22.951Z,99.90
2022-08-12T21:18:08.136Z,99.90
2022-08-12T21:20:42.009Z,99.90
2022-08-12T21:23:09.886Z,99.90
2022-08-12T21:25:45.054Z,99.90
2022-08-12T21:28:14.244Z,99.90
2022-08-12T21:31:11.637Z,99.90
2022-08-12T21:33:31.689Z,99.90
2022-08-12T21:36:02.722Z,99.90
2022-08-12T21:38:34.463Z,99.90
2022-08-12T21:41:07.015Z,99.90
2022-08-12T21:43:45.167Z,99.90
2022-08-12T21:46:34.700Z,99.90
2022-08-12T21:49:05.599Z,99.90
2022-08-12T21:51:36.020Z,99.90
2022-08-12T21:54:21.946Z,99.90
2022-08-12T21:56:53.656Z,99.90
2022-08-12T21:59:22.015Z,99.90
2022-08-12T22:01:50.268Z,99.90
2022-08-12T22:04:36.310Z,99.90
2022-08-12T22:07:07.036Z,99.90
2022-08-12T22:09:43.159Z,99.90
2022-08-12T22:12:29.946Z,99.90
2022-08-12T22:14:57.825Z,99.90
2022-08-12T22:17:33.640Z,99.90
2022-08-12T22:20:17.924Z,99.90
2022-08-12T22:22:56.497Z,99.90
2022-08-12T22:25:27.759Z,99.90
2022-08-12T22:28:13.232Z,99.90
2022-08-12T22:30:59.430Z,99.90
2022-08-12T22:33:27.340Z,99.90
2022-08-12T22:35:59.703Z,99.90
2022-08-12T22:38:30.310Z,99.90
2022-08-12T22:41:00.877Z,99.90
2022-08-12T22:43:59.134Z,99.90
2022-08-12T22:46:52.092Z,99.90
2022-08-12T22:49:36.520Z,99.90
2022-08-12T22:52:14.300Z,99.90
2022-08-12T22:55:02.704Z,99.90
2022-08-12T22:57:49.273Z,99.90
2022-08-12T23:00:23.953Z,99.90
2022-08-12T23:03:00.467Z,99.90
2022-08-12T23:05:57.406Z,99.90
2022-08-12T23:08:22.239Z,99.90
2022-08-12T23:10:51.752Z,99.90
2022-08-12T23:13:42.997Z,99.90
2022-08-12T23:16:28.202Z,99.90
2022-08-12T23:19:01.523Z,99.90
2022-08-12T23:22:03.776Z,99.90
2022-08-12T23:24:26.606Z,99.90
2022-08-12T23:27:13.521Z,99.90
2022-08-12T23:29:43.968Z,99.90
2022-08-12T23:32:35.614Z,99.90
2022-08-12T23:35:06.603Z,99.90
2022-08-12T23:37:47.137Z,99.90
2022-08-12T23:40:22.474Z,99.90
2022-08-12T23:42:55.097Z,99.90
2022-08-12T23:45:31.797Z,99.90
2022-08-12T23:48:02.647Z,99.90
2022-08-12T23:50:34.086Z,99.90
2022-08-12T23:53:05.290Z,99.90
2022-08-12T23:55:35.843Z,99.90
2022-08-12T23:58:21.589Z,99.90
